Time;durP1;ratioP1;P1;durP2;ratioP2;P2;SDS_P1;SDS_P2;PMS_P1;PMS_P2;Temp;Humidity;BMP_temperature;BMP_pressure;BME280_temperature;BME280_humidity;BME280_pressure;Samples;Min_cycle;Max_cycle;Signal;HPM_P1;HPM_P2
2023/09/18 00:01:39;;;;;;;7.80;6.28;;;;;;;19.53;77.33;98305.00;4981747;28;20037;-85
2023/09/18 00:04:05;;;;;;;10.43;6.90;;;;;;;19.33;77.78;98282.06;4994160;28;20022;-86
2023/09/18 00:06:30;;;;;;;10.40;7.35;;;;;;;19.30;77.37;98280.00;5008592;28;20492;-86
2023/09/18 00:08:56;;;;;;;11.07;7.07;;;;;;;19.49;77.32;98297.84;4995675;28;20113;-85
2023/09/18 00:11:21;;;;;;;11.18;6.97;;;;;;;19.52;77.00;98287.19;4999795;28;20065;-86
2023/09/18 00:13:47;;;;;;;8.38;6.82;;;;;;;19.69;76.71;98297.19;5012363;28;20030;-86
2023/09/18 00:16:13;;;;;;;10.82;7.40;;;;;;;19.47;76.80;98267.59;5010778;28;20033;-85
2023/09/18 00:18:38;;;;;;;8.85;6.35;;;;;;;19.51;77.17;98279.34;5014177;28;20036;-86
2023/09/18 00:21:04;;;;;;;8.68;6.30;;;;;;;19.42;77.10;98276.66;4983696;28;20133;-86
2023/09/18 00:23:29;;;;;;;10.18;7.43;;;;;;;19.38;77.65;98278.41;4998647;28;20098;-86
2023/09/18 00:25:55;;;;;;;7.47;5.72;;;;;;;19.21;77.51;98262.16;4984947;28;20117;-86
2023/09/18 00:28:20;;;;;;;9.30;6.65;;;;;;;19.41;77.54;98281.31;5015336;28;20374;-86
2023/09/18 00:30:50;;;;;;;10.65;7.00;;;;;;;19.38;77.28;98264.88;4980939;28;20034;-86
2023/09/18 00:33:16;;;;;;;7.78;6.78;;;;;;;19.42;77.45;98272.06;5016551;28;20021;-86
2023/09/18 00:35:45;;;;;;;17.83;6.53;;;;;;;19.05;77.88;98228.56;5012697;28;20046;-86
2023/09/18 00:38:11;;;;;;;16.88;7.43;;;;;;;19.23;77.29;98230.16;5015895;28;20041;-86
2023/09/18 00:40:36;;;;;;;13.82;6.68;;;;;;;19.29;77.21;98239.72;4981419;28;20027;-85
2023/09/18 00:43:02;;;;;;;10.25;7.38;;;;;;;19.31;77.33;98243.69;4981667;28;20033;-86
2023/09/18 00:45:27;;;;;;;11.45;7.03;;;;;;;19.14;77.25;98223.97;4994569;28;20041;-86
2023/09/18 00:47:54;;;;;;;8.93;7.22;;;;;;;19.30;77.25;98244.00;5009600;28;20104;-86
2023/09/18 00:50:21;;;;;;;9.05;6.32;;;;;;;19.21;77.23;98208.84;4996246;28;20705;-86
2023/09/18 00:52:47;;;;;;;12.48;6.70;;;;;;;19.23;77.56;98219.34;5010637;28;20025;-86
2023/09/18 00:55:13;;;;;;;13.75;7.40;;;;;;;19.20;77.52;98209.94;4996928;28;20037;-86
2023/09/18 00:57:39;;;;;;;7.57;6.80;;;;;;;19.15;77.36;98207.44;4992187;28;20092;-86
2023/09/18 01:00:05;;;;;;;14.00;7.15;;;;;;;19.07;77.46;98200.09;4993299;28;20030;-85
2023/09/18 01:02:31;;;;;;;12.73;6.82;;;;;;;18.49;77.67;98116.75;5011287;28;20049;-86
2023/09/18 01:04:57;;;;;;;7.88;6.97;;;;;;;18.92;78.23;98210.59;5012848;28;20389;-86
2023/09/18 01:07:23;;;;;;;12.50;8.25;;;;;;;18.92;78.32;98197.88;5012701;28;20030;-86
2023/09/18 01:09:48;;;;;;;11.00;7.53;;;;;;;18.98;78.24;98201.22;4999183;28;20656;-86
2023/09/18 01:12:29;;;;;;;9.38;6.88;;;;;;;19.06;78.09;98200.41;5015529;28;20034;-87
2023/09/18 01:15:17;;;;;;;12.23;6.20;;;;;;;18.95;77.76;98164.78;5020215;28;20026;-86
2023/09/18 01:17:43;;;;;;;10.63;7.28;;;;;;;19.01;78.14;98176.22;5017019;28;20025;-86
2023/09/18 01:20:10;;;;;;;9.73;7.30;;;;;;;18.93;78.01;98160.81;5019573;28;20064;-86
2023/09/18 01:22:36;;;;;;;12.88;7.10;;;;;;;19.06;77.90;98186.88;5002677;28;20045;-87
2023/09/18 01:25:01;;;;;;;10.38;7.60;;;;;;;18.93;78.38;98164.31;5017724;28;20069;-86
2023/09/18 01:27:27;;;;;;;8.65;6.63;;;;;;;18.97;78.41;98173.38;5013935;28;20034;-87
2023/09/18 01:29:53;;;;;;;9.40;7.40;;;;;;;19.05;78.32;98183.38;5006179;28;20025;-87
2023/09/18 01:32:19;;;;;;;8.82;7.10;;;;;;;19.01;78.40;98173.53;5022992;28;20115;-87
2023/09/18 01:34:47;;;;;;;10.63;7.57;;;;;;;18.66;78.53;98124.06;5022422;28;20017;-86
2023/09/18 01:37:15;;;;;;;11.02;6.97;;;;;;;18.98;78.46;98168.78;5000411;28;20394;-85
2023/09/18 01:39:41;;;;;;;9.82;7.25;;;;;;;18.74;78.28;98134.06;5016156;28;20034;-86
2023/09/18 01:42:10;;;;;;;8.50;6.28;;;;;;;18.64;78.64;98115.47;5014360;28;20033;-86
2023/09/18 01:44:39;;;;;;;10.18;6.88;;;;;;;18.71;78.56;98118.50;5015488;28;20033;-86
2023/09/18 01:47:06;;;;;;;10.45;6.93;;;;;;;18.70;78.39;98103.38;5011846;28;20025;-86
2023/09/18 01:49:34;;;;;;;8.30;6.90;;;;;;;18.94;78.58;98148.84;5014242;28;20037;-86
2023/09/18 01:52:00;;;;;;;13.70;7.35;;;;;;;18.91;78.77;98142.22;5016582;28;20033;-86
2023/09/18 01:54:26;;;;;;;16.02;7.13;;;;;;;18.99;78.38;98149.50;5014827;28;20413;-86
2023/09/18 01:56:55;;;;;;;10.30;7.47;;;;;;;18.92;78.42;98132.97;5012894;28;20029;-87
2023/09/18 01:59:22;;;;;;;8.88;6.90;;;;;;;18.91;78.75;98153.03;5013655;28;20080;-86
2023/09/18 02:01:48;;;;;;;10.60;7.38;;;;;;;18.69;78.71;98131.56;5014515;28;20706;-87
2023/09/18 02:04:14;;;;;;;10.27;7.43;;;;;;;18.75;78.75;98137.59;5015872;28;20081;-87
2023/09/18 02:06:42;;;;;;;12.05;7.97;;;;;;;18.83;78.62;98150.31;5028729;28;20053;-87
2023/09/18 02:09:08;;;;;;;9.52;7.13;;;;;;;18.83;78.68;98151.09;5012566;28;20085;-86
2023/09/18 02:11:39;;;;;;;10.85;7.25;;;;;;;18.72;78.94;98128.19;5013587;28;20033;-86
2023/09/18 02:14:05;;;;;;;10.48;7.57;;;;;;;18.66;78.70;98132.19;5013450;28;20402;-86
2023/09/18 02:16:35;;;;;;;9.10;7.03;;;;;;;18.65;79.08;98122.50;4996532;28;20030;-85
2023/09/18 02:19:01;;;;;;;12.80;7.05;;;;;;;18.70;78.62;98122.31;4984009;28;20033;-86
2023/09/18 02:21:26;;;;;;;13.95;6.95;;;;;;;18.73;79.00;98135.19;5011291;28;20057;-85
2023/09/18 02:23:53;;;;;;;10.57;7.13;;;;;;;18.78;78.65;98134.25;4994802;28;20064;-86
2023/09/18 02:26:23;;;;;;;8.75;7.05;;;;;;;18.85;78.25;98140.75;5008367;28;20393;-86
2023/09/18 02:28:51;;;;;;;8.88;6.57;;;;;;;18.68;78.56;98117.22;5013883;28;20026;-85
2023/09/18 02:31:16;;;;;;;11.70;6.78;;;;;;;18.61;78.66;98114.22;5014158;28;20022;-86
2023/09/18 02:33:43;;;;;;;12.93;7.57;;;;;;;18.61;78.62;98108.00;4997926;28;20476;-86
2023/09/18 02:36:08;;;;;;;12.43;6.75;;;;;;;18.58;78.91;98111.34;5010925;28;20029;-86
2023/09/18 02:38:34;;;;;;;7.25;6.53;;;;;;;18.46;78.90;98097.66;5014433;28;20390;-85
2023/09/18 02:41:00;;;;;;;11.43;7.53;;;;;;;18.64;78.89;98127.09;4997383;28;20038;-86
2023/09/18 02:43:26;;;;;;;12.20;7.30;;;;;;;18.28;79.36;98077.91;5015198;28;20026;-86
2023/09/18 02:45:51;;;;;;;9.68;7.18;;;;;;;18.62;78.92;98118.50;5010790;28;20022;-86
2023/09/18 02:48:17;;;;;;;11.73;7.28;;;;;;;18.51;79.19;98105.63;5031400;28;20022;-86
2023/09/18 02:50:43;;;;;;;12.25;6.82;;;;;;;18.57;79.43;98105.16;5000193;28;20031;-86
2023/09/18 02:53:22;;;;;;;7.63;6.60;;;;;;;18.60;79.05;98114.53;5013335;28;20030;-86
2023/09/18 02:55:50;;;;;;;11.38;7.72;;;;;;;18.55;79.41;98117.38;5014437;28;20113;-86
2023/09/18 02:58:16;;;;;;;9.98;8.27;;;;;;;18.36;79.87;98103.34;5012956;28;20041;-87
2023/09/18 03:00:48;;;;;;;9.63;7.32;;;;;;;18.38;79.82;98111.94;4998649;28;20022;-86
2023/09/18 03:03:14;;;;;;;9.18;6.88;;;;;;;18.52;79.22;98112.63;5016435;28;20033;-86
2023/09/18 03:05:41;;;;;;;8.38;6.97;;;;;;;18.34;79.68;98095.59;5015996;28;20083;-87
2023/09/18 03:08:08;;;;;;;14.57;6.80;;;;;;;18.22;80.27;98081.88;4998420;28;20587;-86
2023/09/18 03:10:37;;;;;;;7.28;6.38;;;;;;;18.52;79.20;98083.69;5015637;28;20032;-87
2023/09/18 03:13:04;;;;;;;9.65;7.85;;;;;;;18.59;78.63;98085.91;5014084;28;20175;-86
2023/09/18 03:15:30;;;;;;;13.63;8.07;;;;;;;18.60;78.53;98084.81;4995733;28;20478;-86
2023/09/18 03:18:03;;;;;;;9.77;7.93;;;;;;;18.44;79.14;98087.19;4996625;28;20034;-87
2023/09/18 03:20:29;;;;;;;8.50;6.93;;;;;;;18.40;79.48;98072.69;5009618;28;20026;-87
2023/09/18 03:22:57;;;;;;;9.93;7.50;;;;;;;18.51;78.68;98057.78;5017621;28;20104;-87
2023/09/18 03:25:24;;;;;;;11.00;7.35;;;;;;;18.49;78.76;98061.91;4981783;28;20030;-86
2023/09/18 03:27:54;;;;;;;12.15;7.60;;;;;;;18.45;78.97;98063.66;5008887;28;20133;-87
2023/09/18 03:30:20;;;;;;;10.10;7.18;;;;;;;18.33;79.55;98042.63;5014298;28;20117;-86
2023/09/18 03:32:48;;;;;;;11.70;7.03;;;;;;;18.41;79.42;98051.88;5014231;28;20500;-86
2023/09/18 03:35:19;;;;;;;11.73;7.60;;;;;;;18.37;79.23;98037.41;4976466;28;20048;-86
2023/09/18 03:37:45;;;;;;;9.80;7.07;;;;;;;18.47;79.10;98034.41;4998048;28;20030;-87
2023/09/18 03:40:11;;;;;;;7.78;6.97;;;;;;;18.42;78.87;98029.94;5014695;28;20469;-86
2023/09/18 03:42:36;;;;;;;13.10;8.43;;;;;;;18.46;79.17;98033.59;5011762;28;20034;-87
2023/09/18 03:45:02;;;;;;;10.57;7.85;;;;;;;18.24;79.79;98012.13;5011481;28;20085;-86
2023/09/18 03:47:28;;;;;;;9.52;7.55;;;;;;;18.45;79.32;98042.03;5010380;28;20088;-86
2023/09/18 03:49:53;;;;;;;10.25;7.95;;;;;;;18.35;79.62;98024.19;4977994;28;20060;-87
2023/09/18 03:52:18;;;;;;;11.07;8.27;;;;;;;18.31;79.60;98012.44;4996265;28;20045;-87
2023/09/18 03:54:44;;;;;;;7.47;6.72;;;;;;;18.16;79.76;97996.72;4980626;28;20038;-86
2023/09/18 03:57:09;;;;;;;10.63;7.63;;;;;;;17.43;82.49;97994.06;4978790;28;20558;-86
2023/09/18 03:59:35;;;;;;;8.90;7.50;;;;;;;17.82;81.11;97959.69;4976087;28;21773;-87
2023/09/18 04:02:00;;;;;;;8.85;8.02;;;;;;;18.29;80.51;98021.97;4993543;28;20508;-87
2023/09/18 04:04:25;;;;;;;14.20;8.00;;;;;;;18.20;80.03;98010.38;5012076;28;20417;-87
2023/09/18 04:06:51;;;;;;;8.65;7.70;;;;;;;18.31;80.35;98012.44;4970203;28;20396;-87
2023/09/18 04:09:17;;;;;;;8.82;7.80;;;;;;;18.31;79.61;97987.31;4976706;28;20049;-87
2023/09/18 04:11:43;;;;;;;7.40;6.70;;;;;;;17.67;80.52;97948.59;4994237;28;20041;-87
2023/09/18 04:14:08;;;;;;;8.23;7.18;;;;;;;18.21;80.15;97963.34;5008762;28;20030;-87
2023/09/18 04:16:35;;;;;;;11.18;7.68;;;;;;;18.34;79.88;97986.69;4994031;28;20117;-87
2023/09/18 04:19:04;;;;;;;8.77;6.97;;;;;;;18.24;79.92;97982.41;5012491;28;20118;-87
2023/09/18 04:21:29;;;;;;;9.68;7.65;;;;;;;17.88;80.56;97925.25;4975788;28;20098;-86
2023/09/18 04:23:57;;;;;;;9.45;7.35;;;;;;;18.19;79.96;97969.09;5004916;28;20022;-88
2023/09/18 04:26:30;;;;;;;8.68;7.03;;;;;;;18.24;80.31;97984.34;5009637;28;20033;-87
2023/09/18 04:29:01;;;;;;;10.88;7.47;;;;;;;18.24;80.42;97970.81;5014382;28;20454;-88
2023/09/18 04:31:27;;;;;;;10.60;6.97;;;;;;;18.25;80.28;97977.81;5006057;28;20055;-87
2023/09/18 04:33:53;;;;;;;13.65;8.63;;;;;;;18.27;80.26;97997.19;5012888;28;20026;-87
2023/09/18 04:36:19;;;;;;;11.00;7.75;;;;;;;18.04;81.13;97990.38;5007304;28;20117;-88
2023/09/18 04:38:45;;;;;;;8.65;7.75;;;;;;;18.28;80.68;98004.19;5007628;28;20029;-88
2023/09/18 04:41:11;;;;;;;9.05;8.13;;;;;;;18.02;81.44;97989.91;4992715;28;20030;-88
2023/09/18 04:43:38;;;;;;;8.70;7.80;;;;;;;17.89;82.31;97989.72;5010003;28;20037;-88
2023/09/18 04:46:04;;;;;;;11.32;8.82;;;;;;;17.90;82.50;97990.50;5010088;28;20057;-87
2023/09/18 04:48:33;;;;;;;8.93;7.60;;;;;;;18.17;81.05;97981.31;4980660;28;20050;-88
2023/09/18 04:50:59;;;;;;;8.77;7.43;;;;;;;18.25;80.49;97983.22;5011886;28;20150;-87
2023/09/18 04:53:25;;;;;;;8.55;7.75;;;;;;;18.05;81.31;97978.44;4982007;28;20022;-88
2023/09/18 04:55:50;;;;;;;11.50;7.55;;;;;;;17.85;82.82;97975.25;5012195;28;20476;-86
2023/09/18 04:58:17;;;;;;;9.38;8.25;;;;;;;17.19;85.79;97918.91;5021992;28;20049;-85
2023/09/18 05:00:44;;;;;;;11.40;8.75;;;;;;;17.61;83.40;97953.31;5013366;28;20104;-85
2023/09/18 05:03:12;;;;;;;9.63;8.65;;;;;;;17.88;83.25;97981.94;5010513;28;20484;-85
2023/09/18 05:05:37;;;;;;;9.63;8.02;;;;;;;17.92;84.15;97967.50;5009945;28;20033;-85
2023/09/18 05:08:07;;;;;;;8.88;7.95;;;;;;;17.63;84.20;97945.69;5011365;28;20026;-85
2023/09/18 05:10:33;;;;;;;11.73;8.15;;;;;;;17.71;85.31;97955.69;5014131;28;20636;-87
2023/09/18 05:12:58;;;;;;;9.20;8.18;;;;;;;17.51;86.67;97937.44;5026834;28;20102;-87
2023/09/18 05:15:29;;;;;;;10.55;8.25;;;;;;;17.23;87.69;97909.13;5001416;28;20418;-87
2023/09/18 05:17:57;;;;;;;9.55;8.27;;;;;;;17.49;86.59;97931.53;5015725;28;20036;-87
2023/09/18 05:20:24;;;;;;;10.65;9.55;;;;;;;17.64;87.83;97943.81;4982029;28;20041;-87
2023/09/18 05:22:52;;;;;;;8.38;7.55;;;;;;;17.91;82.87;97930.78;5028344;28;20037;-87
2023/09/18 05:25:18;;;;;;;9.40;8.40;;;;;;;17.61;85.66;97912.03;4998492;28;20053;-87
2023/09/18 05:27:44;;;;;;;13.15;8.70;;;;;;;17.57;87.34;97919.19;5014726;28;20025;-87
2023/09/18 05:30:11;;;;;;;8.35;7.47;;;;;;;17.59;83.63;97898.06;5013307;28;20172;-87
2023/09/18 05:32:36;;;;;;;7.97;7.10;;;;;;;17.95;81.88;97903.97;5014526;28;20108;-88
2023/09/18 05:35:06;;;;;;;12.13;8.10;;;;;;;17.76;85.60;97923.16;5002644;28;20175;-87
2023/09/18 05:37:31;;;;;;;9.50;7.90;;;;;;;18.02;82.86;97915.06;5008731;28;20030;-88
2023/09/18 05:39:57;;;;;;;9.15;8.13;;;;;;;18.10;82.53;97918.88;5018481;28;20025;-88
2023/09/18 05:42:22;;;;;;;9.10;7.75;;;;;;;18.09;83.79;97912.66;4996937;28;20030;-87
2023/09/18 05:44:47;;;;;;;10.05;7.93;;;;;;;18.10;83.65;97916.97;4981448;28;20341;-87
2023/09/18 05:47:13;;;;;;;8.18;7.38;;;;;;;18.31;81.59;97904.38;4994990;28;20037;-87
2023/09/18 05:49:38;;;;;;;7.93;7.18;;;;;;;18.36;80.84;97903.41;4980106;28;20029;-87
2023/09/18 05:52:03;;;;;;;8.80;7.60;;;;;;;18.22;83.50;97886.59;4980742;28;20870;-87
2023/09/18 05:54:29;;;;;;;7.55;6.80;;;;;;;18.34;80.83;97879.44;5013261;28;20502;-87
2023/09/18 05:56:54;;;;;;;8.65;7.07;;;;;;;18.40;80.42;97883.53;4997791;28;20029;-87
2023/09/18 05:59:20;;;;;;;10.30;7.70;;;;;;;18.22;82.67;97865.78;4980987;28;20111;-87
2023/09/18 06:01:45;;;;;;;8.60;7.80;;;;;;;18.29;82.41;97878.78;5013878;28;20520;-87
2023/09/18 06:04:12;;;;;;;9.57;8.20;;;;;;;18.15;85.19;97875.50;4984158;28;20049;-87
2023/09/18 06:06:38;;;;;;;8.43;7.53;;;;;;;18.39;81.79;97865.72;4980981;28;20053;-87
2023/09/18 06:09:03;;;;;;;9.98;7.32;;;;;;;18.31;82.19;97839.53;5010912;28;20425;-87
2023/09/18 06:11:29;;;;;;;9.05;7.28;;;;;;;18.33;81.39;97831.09;4992070;28;20064;-87
2023/09/18 06:13:54;;;;;;;8.52;7.50;;;;;;;18.62;81.37;97859.00;4996397;28;20391;-88
2023/09/18 06:16:19;;;;;;;8.52;7.70;;;;;;;18.47;81.08;97834.44;5014106;28;20034;-87
2023/09/18 06:18:45;;;;;;;7.97;7.25;;;;;;;18.46;81.76;97822.81;5009525;28;20038;-87
2023/09/18 06:21:10;;;;;;;9.10;8.05;;;;;;;18.80;81.58;97854.31;4986462;28;20441;-88
2023/09/18 06:23:36;;;;;;;7.85;7.10;;;;;;;18.72;81.47;97852.44;5014724;28;20040;-88
2023/09/18 06:26:01;;;;;;;8.35;7.55;;;;;;;18.65;81.63;97841.34;4977144;28;20037;-87
2023/09/18 06:28:27;;;;;;;8.45;7.60;;;;;;;18.59;81.86;97831.81;5013370;28;20068;-87
2023/09/18 06:30:53;;;;;;;7.45;6.70;;;;;;;18.68;82.08;97846.91;4991607;28;20116;-87
2023/09/18 06:33:19;;;;;;;8.40;7.60;;;;;;;18.75;81.81;97840.19;5013907;28;20037;-88
2023/09/18 06:35:44;;;;;;;8.57;6.68;;;;;;;18.74;82.12;97860.25;5011142;28;20088;-87
2023/09/18 06:38:12;;;;;;;8.52;7.00;;;;;;;18.54;84.26;97840.91;4995371;28;20057;-88
2023/09/18 06:40:38;;;;;;;8.25;7.38;;;;;;;18.43;83.35;97809.16;4996591;28;20038;-88
2023/09/18 06:43:04;;;;;;;7.63;6.82;;;;;;;18.63;82.43;97824.69;4994210;28;20461;-87
2023/09/18 06:45:30;;;;;;;8.52;7.47;;;;;;;18.52;82.32;97802.59;5013257;28;20400;-87
2023/09/18 06:47:55;;;;;;;7.40;6.68;;;;;;;18.47;83.73;97829.03;5010554;28;20136;-87
2023/09/18 06:50:20;;;;;;;8.90;6.68;;;;;;;18.85;82.55;97859.53;4979954;28;20401;-87
2023/09/18 06:52:46;;;;;;;8.27;6.60;;;;;;;18.82;83.37;97854.00;5012090;28;20030;-87
2023/09/18 06:55:12;;;;;;;8.10;7.07;;;;;;;18.90;82.93;97864.75;4976000;28;20026;-87
2023/09/18 06:57:37;;;;;;;6.95;6.28;;;;;;;18.86;81.62;97858.44;4996634;28;20030;-87
2023/09/18 07:00:04;;;;;;;8.27;6.68;;;;;;;18.72;82.67;97852.44;4976987;28;20026;-87
2023/09/18 07:02:30;;;;;;;8.27;6.30;;;;;;;18.89;84.08;97871.31;5006110;28;20508;-87
2023/09/18 07:04:55;;;;;;;7.43;6.68;;;;;;;19.10;81.56;97880.25;4996601;28;20022;-87
2023/09/18 07:07:25;;;;;;;9.27;7.63;;;;;;;19.04;82.06;97878.06;4980354;28;20584;-88
2023/09/18 07:09:53;;;;;;;9.50;7.03;;;;;;;19.13;82.56;97885.00;4996803;28;20084;-87
2023/09/18 07:12:19;;;;;;;10.88;7.53;;;;;;;19.12;83.51;97882.63;5012825;28;20207;-87
2023/09/18 07:14:48;;;;;;;10.77;7.85;;;;;;;19.04;82.63;97838.28;4980720;28;20034;-88
2023/09/18 07:17:13;;;;;;;8.82;7.93;;;;;;;19.27;82.19;97869.31;4992737;28;20058;-88
2023/09/18 07:19:39;;;;;;;10.93;7.57;;;;;;;19.27;81.75;97869.31;4996423;28;20577;-87
2023/09/18 07:22:04;;;;;;;9.23;6.90;;;;;;;19.41;81.74;97886.13;5011848;28;20036;-88
2023/09/18 07:24:30;;;;;;;9.57;6.80;;;;;;;19.41;82.66;97896.16;5009265;28;20041;-87
2023/09/18 07:26:57;;;;;;;10.88;6.60;;;;;;;19.47;81.74;97894.03;5011008;28;20109;-88
2023/09/18 07:29:24;;;;;;;10.48;6.40;;;;;;;19.48;81.76;97879.41;5012214;28;20509;-87
2023/09/18 07:31:51;;;;;;;10.27;6.85;;;;;;;19.64;81.64;97889.31;5013346;28;20034;-88
2023/09/18 07:34:17;;;;;;;7.80;6.45;;;;;;;19.50;82.44;97877.16;5009094;28;20022;-87
2023/09/18 07:36:43;;;;;;;8.50;7.15;;;;;;;19.68;81.46;97887.50;5007581;28;20125;-87
2023/09/18 07:39:09;;;;;;;7.85;5.47;;;;;;;19.64;81.85;97874.97;5009137;28;20034;-88
2023/09/18 07:41:34;;;;;;;12.77;6.95;;;;;;;19.85;80.63;97895.53;4976466;28;20027;-87
2023/09/18 07:44:00;;;;;;;10.95;6.30;;;;;;;19.65;81.63;97879.28;4992515;28;20026;-87
2023/09/18 07:46:25;;;;;;;14.00;6.88;;;;;;;19.75;80.98;97879.66;4993677;28;20033;-87
2023/09/18 07:48:51;;;;;;;11.40;6.47;;;;;;;19.95;80.28;97914.06;4993850;28;20042;-87
2023/09/18 07:51:16;;;;;;;12.05;5.82;;;;;;;20.02;79.63;97914.34;5000979;28;20564;-87
2023/09/18 07:53:42;;;;;;;15.02;7.88;;;;;;;20.04;79.31;97927.53;4979278;28;20086;-88
2023/09/18 07:56:08;;;;;;;12.18;6.28;;;;;;;20.02;79.36;97913.53;5012265;28;20030;-87
2023/09/18 07:58:38;;;;;;;16.70;6.32;;;;;;;19.98;79.75;97918.84;5013006;28;20492;-87
2023/09/18 08:01:04;;;;;;;9.80;5.72;;;;;;;20.10;79.55;97915.38;4980705;28;20121;-87
2023/09/18 08:03:30;;;;;;;12.70;6.15;;;;;;;20.09;79.45;97917.28;4995637;28;20176;-87
2023/09/18 08:05:56;;;;;;;9.68;6.15;;;;;;;19.97;79.84;97894.75;4995532;28;20116;-87
2023/09/18 08:08:23;;;;;;;9.80;5.97;;;;;;;20.15;79.31;97910.53;4995331;28;20037;-87
2023/09/18 08:10:49;;;;;;;11.57;6.57;;;;;;;19.80;79.74;97857.00;5012758;28;20033;-87
2023/09/18 08:13:16;;;;;;;9.93;6.55;;;;;;;20.08;79.31;97890.53;5013088;28;20132;-87
2023/09/18 08:15:41;;;;;;;7.50;6.10;;;;;;;20.18;79.36;97901.72;5010916;28;20022;-87
2023/09/18 08:18:07;;;;;;;10.73;6.10;;;;;;;20.04;79.57;97878.78;5011542;28;20100;-87
2023/09/18 08:20:33;;;;;;;9.05;7.13;;;;;;;19.88;79.23;97842.59;4994887;28;20032;-87
2023/09/18 08:23:01;;;;;;;9.27;6.80;;;;;;;20.27;78.93;97904.38;5010672;28;20033;-87
2023/09/18 08:25:26;;;;;;;10.35;6.30;;;;;;;20.30;79.16;97920.00;5004683;28;20032;-87
2023/09/18 08:27:52;;;;;;;12.55;6.90;;;;;;;20.34;79.16;97912.78;5011085;28;20030;-87
2023/09/18 08:30:20;;;;;;;9.57;5.95;;;;;;;20.33;79.12;97924.75;4994934;28;20022;-87
2023/09/18 08:32:46;;;;;;;9.98;6.43;;;;;;;20.08;79.23;97868.84;5011356;28;20445;-87
2023/09/18 08:35:12;;;;;;;10.18;5.45;;;;;;;20.12;78.86;97862.44;4991068;28;20045;-87
2023/09/18 08:37:39;;;;;;;10.68;6.13;;;;;;;20.48;78.24;97898.91;4991744;28;20390;-87
2023/09/18 08:40:09;;;;;;;9.55;5.47;;;;;;;20.45;78.07;97897.66;4959527;28;20030;-87
2023/09/18 08:42:36;;;;;;;14.35;5.35;;;;;;;20.58;77.85;97915.53;5007903;28;20076;-87
2023/09/18 08:45:02;;;;;;;13.82;6.25;;;;;;;20.63;77.72;97917.25;4995394;28;20112;-87
2023/09/18 08:47:29;;;;;;;12.85;5.50;;;;;;;20.60;76.88;97921.41;5012249;28;20026;-87
2023/09/18 08:49:57;;;;;;;10.48;5.18;;;;;;;20.72;77.37;97928.81;4991479;28;20094;-87
2023/09/18 08:52:23;;;;;;;15.20;5.60;;;;;;;20.70;76.34;97925.63;4975415;28;20031;-87
2023/09/18 08:54:50;;;;;;;9.05;4.50;;;;;;;20.69;76.22;97927.53;4975312;28;20034;-87
2023/09/18 08:57:16;;;;;;;8.18;5.00;;;;;;;20.70;75.79;97931.06;4991587;28;20026;-87
2023/09/18 08:59:43;;;;;;;7.47;5.38;;;;;;;20.71;75.70;97922.56;4971029;28;20385;-87
2023/09/18 09:02:11;;;;;;;13.05;5.13;;;;;;;20.85;75.80;97939.34;5011098;28;20029;-87
2023/09/18 09:04:37;;;;;;;9.00;4.85;;;;;;;20.76;75.90;97925.06;4979083;28;20022;-87
2023/09/18 09:07:03;;;;;;;11.07;4.90;;;;;;;20.72;75.63;97924.16;4994796;28;20030;-87
2023/09/18 09:09:30;;;;;;;7.80;4.80;;;;;;;20.73;75.59;97935.78;5010641;28;20030;-87
2023/09/18 09:11:56;;;;;;;12.20;5.75;;;;;;;20.71;75.55;97927.19;5011398;28;20033;-87
2023/09/18 09:14:27;;;;;;;11.43;3.95;;;;;;;20.27;74.93;97881.94;5012323;28;20022;-87
2023/09/18 09:16:54;;;;;;;11.00;4.38;;;;;;;20.60;74.76;97929.56;5011289;28;20018;-87
2023/09/18 09:19:32;;;;;;;9.32;4.18;;;;;;;20.56;74.31;97920.50;5010739;28;20029;-87
2023/09/18 09:21:58;;;;;;;12.57;4.60;;;;;;;20.44;74.70;97906.94;5011274;28;20026;-87
2023/09/18 09:24:56;;;;;;;10.23;4.28;;;;;;;20.52;74.27;97913.38;4994999;28;20083;-87
2023/09/18 09:27:21;;;;;;;8.05;3.20;;;;;;;20.51;74.11;97922.66;4986559;28;20046;-87
2023/09/18 09:30:00;;;;;;;12.70;3.60;;;;;;;20.47;74.17;97924.44;4996077;28;20039;-87
2023/09/18 09:32:31;;;;;;;12.30;3.80;;;;;;;20.38;73.81;97915.63;4991795;28;20026;-87
2023/09/18 09:35:02;;;;;;;18.00;3.38;;;;;;;20.44;74.32;97925.91;4996230;28;20125;-87
2023/09/18 09:37:31;;;;;;;10.93;3.92;;;;;;;20.34;74.40;97926.31;5015593;28;20034;-87
2023/09/18 09:39:56;;;;;;;12.88;3.80;;;;;;;20.39;74.24;97926.13;4997936;28;20117;-87
2023/09/18 09:42:24;;;;;;;18.92;3.65;;;;;;;20.43;73.84;97910.75;4978538;28;20460;-87
2023/09/18 09:45:14;;;;;;;15.13;4.10;;;;;;;20.55;73.85;97910.78;4978723;28;20026;-87
2023/09/18 09:47:39;;;;;;;6.70;3.20;;;;;;;20.76;73.81;97908.81;4995827;28;20053;-87
2023/09/18 09:50:18;;;;;;;8.60;2.92;;;;;;;20.73;73.35;97931.16;5000951;28;20456;-87
2023/09/18 09:52:48;;;;;;;11.50;3.60;;;;;;;20.76;73.40;97925.06;5013780;28;20017;-87
2023/09/18 09:55:43;;;;;;;8.52;3.58;;;;;;;20.68;73.39;97933.31;4997174;28;20034;-87
2023/09/18 09:58:10;;;;;;;7.18;3.22;;;;;;;20.61;73.24;97933.88;5004953;28;20037;-87
2023/09/18 10:00:43;;;;;;;7.50;3.08;;;;;;;20.72;72.82;97932.31;5015052;28;20025;-86
2023/09/18 10:03:10;;;;;;;6.85;3.20;;;;;;;20.65;73.62;97907.66;5013789;28;20267;-87
2023/09/18 10:05:38;;;;;;;9.68;3.25;;;;;;;20.77;73.43;97926.66;5010635;28;20068;-87
2023/09/18 10:08:08;;;;;;;7.10;3.38;;;;;;;20.82;73.20;97934.56;5013767;28;20033;-87
2023/09/18 10:10:38;;;;;;;7.65;3.53;;;;;;;20.90;73.47;97935.63;4997358;28;20030;-87
2023/09/18 10:13:10;;;;;;;16.08;4.22;;;;;;;20.98;72.83;97942.06;5013903;28;20576;-87
2023/09/18 10:15:38;;;;;;;6.63;3.17;;;;;;;21.06;72.66;97933.84;5013775;28;20037;-87
2023/09/18 10:18:08;;;;;;;10.65;3.42;;;;;;;21.10;72.50;97939.38;5013334;28;20030;-87
2023/09/18 10:20:42;;;;;;;7.95;3.42;;;;;;;21.21;72.25;97951.38;4997450;28;20038;-87
2023/09/18 10:23:19;;;;;;;10.13;3.55;;;;;;;21.24;72.68;97942.53;5014701;28;20534;-88
2023/09/18 10:25:51;;;;;;;15.02;3.92;;;;;;;21.17;72.63;97939.59;5012366;28;20026;-87
2023/09/18 10:28:17;;;;;;;12.10;4.07;;;;;;;21.16;72.43;97951.59;5012871;28;20104;-87
2023/09/18 10:30:44;;;;;;;9.02;3.33;;;;;;;21.17;72.14;97943.09;4980309;28;20033;-87
2023/09/18 10:33:09;;;;;;;14.23;3.38;;;;;;;21.15;72.37;97958.16;4997019;28;20560;-87
2023/09/18 10:35:35;;;;;;;13.77;3.95;;;;;;;21.11;72.33;97951.81;4996532;28;20161;-87
2023/09/18 10:38:02;;;;;;;11.55;3.83;;;;;;;21.15;72.39;97975.22;4996677;28;20124;-87
2023/09/18 10:40:30;;;;;;;6.47;3.20;;;;;;;21.02;72.56;97948.38;4992990;28;20113;-87
2023/09/18 10:42:58;;;;;;;13.05;3.90;;;;;;;21.15;72.21;97975.22;5008441;28;20100;-87
2023/09/18 10:45:24;;;;;;;12.20;4.03;;;;;;;21.15;72.45;97996.94;5010683;28;20026;-87
2023/09/18 10:47:50;;;;;;;8.70;3.50;;;;;;;21.10;72.47;97972.72;4977376;28;20049;-87
2023/09/18 10:50:27;;;;;;;9.13;3.17;;;;;;;21.06;72.51;97958.25;4996030;28;20025;-87
2023/09/18 10:52:53;;;;;;;11.10;3.35;;;;;;;21.18;72.47;97982.72;5013118;28;20080;-87
2023/09/18 10:55:18;;;;;;;7.72;3.35;;;;;;;21.24;72.34;97978.63;4996890;28;20689;-87
2023/09/18 10:57:54;;;;;;;7.05;3.45;;;;;;;21.08;72.52;97966.06;4996595;28;20030;-87
2023/09/18 11:00:24;;;;;;;11.82;3.70;;;;;;;21.23;72.41;97968.88;4973575;28;20038;-87
2023/09/18 11:02:55;;;;;;;10.25;3.35;;;;;;;21.11;72.51;97968.09;4993389;28;20018;-87
2023/09/18 11:05:32;;;;;;;8.18;3.40;;;;;;;21.15;72.63;97977.94;5009751;28;20026;-87
2023/09/18 11:08:28;;;;;;;6.55;3.10;;;;;;;21.24;72.41;97989.50;4994587;28;20072;-87
2023/09/18 11:11:11;;;;;;;7.47;3.83;;;;;;;21.04;72.69;97965.94;5003015;28;20025;-86
2023/09/18 11:13:55;;;;;;;11.88;3.92;;;;;;;21.14;72.74;97975.56;4996594;28;20038;-87
2023/09/18 11:16:26;;;;;;;7.75;3.90;;;;;;;21.22;73.10;97967.31;4996362;28;20025;-87
2023/09/18 11:19:17;;;;;;;10.32;4.45;;;;;;;21.26;72.61;97978.28;5012720;28;20054;-87
2023/09/18 11:21:43;;;;;;;7.35;3.50;;;;;;;21.23;72.35;97976.25;5012296;28;20054;-87
2023/09/18 11:24:16;;;;;;;6.60;3.58;;;;;;;21.13;72.61;97965.84;4992468;28;20034;-87
2023/09/18 11:26:42;;;;;;;7.70;3.50;;;;;;;21.13;72.63;97965.84;4994194;28;20033;-87
2023/09/18 11:29:10;;;;;;;7.82;3.33;;;;;;;21.22;72.51;97982.81;4992747;28;20030;-87
2023/09/18 11:31:56;;;;;;;12.95;4.13;;;;;;;21.16;72.96;97973.31;4998509;28;20075;-86